createdAt,value
2018-02-22T00:01:03.354Z,-1.6
2018-02-22T00:14:04.204Z,-1.8
2018-02-22T00:27:04.953Z,-1.9
2018-02-22T00:33:05.412Z,-2
2018-02-22T00:37:05.584Z,-2.1
2018-02-22T00:42:05.865Z,-2.2
2018-02-22T00:48:06.265Z,-2.4
2018-02-22T00:51:06.467Z,-2.5
2018-02-22T00:56:06.763Z,-2.6
2018-02-22T01:01:07.092Z,-2.7
2018-02-22T01:06:07.393Z,-2.9
2018-02-22T01:12:07.714Z,-3
2018-02-22T01:16:07.940Z,-1.1
2018-02-22T01:26:08.612Z,-3
2018-02-22T01:31:08.872Z,-1.1
2018-02-22T01:33:08.980Z,-3
2018-02-22T01:35:09.179Z,-1.1
2018-02-22T01:36:09.172Z,-3
2018-02-22T01:37:09.269Z,-1.1
2018-02-22T01:44:09.714Z,-1.3
2018-02-22T01:49:10.025Z,-1.4
2018-02-22T01:53:10.287Z,-1.5
2018-02-22T01:58:10.530Z,-1.6
2018-02-22T02:04:10.893Z,-1.8
2018-02-22T02:10:11.278Z,-1.9
2018-02-22T02:11:11.347Z,-1.8
2018-02-22T02:12:11.423Z,-1.9
2018-02-22T02:17:11.690Z,-2
2018-02-22T02:18:11.758Z,-1.9
2018-02-22T02:19:11.807Z,-2
2018-02-22T02:25:12.249Z,-2.1
2018-02-22T02:26:12.290Z,-2
2018-02-22T02:27:12.354Z,-2.1
2018-02-22T02:35:12.857Z,-2.3
2018-02-22T02:58:14.229Z,-2.4
2018-02-22T02:59:14.314Z,-2.3
2018-02-22T03:00:14.351Z,-2.4
2018-02-22T03:12:15.052Z,-2.5
2018-02-22T03:18:15.486Z,-2.4
2018-02-22T03:19:15.514Z,-2.5
2018-02-22T03:29:16.144Z,-2.4
2018-02-22T03:30:16.191Z,-2.5
2018-02-22T03:42:16.901Z,-2.6
2018-02-22T03:56:17.751Z,-2.8
2018-02-22T04:06:18.459Z,-2.9
2018-02-22T04:08:18.551Z,-2.8
2018-02-22T04:09:18.598Z,-2.9
2018-02-22T04:15:18.980Z,-3
2018-02-22T04:16:19.014Z,-2.9
2018-02-22T04:17:19.087Z,-3
2018-02-22T04:25:19.526Z,-3.1
2018-02-22T04:30:19.890Z,-3.3
2018-02-22T04:38:20.333Z,-3.4
2018-02-22T04:58:21.611Z,-3.3
2018-02-22T05:00:21.732Z,-3.1
2018-02-22T05:01:21.799Z,-3
2018-02-22T05:02:21.817Z,-2.9
2018-02-22T05:03:21.901Z,-2.8
2018-02-22T05:05:22.070Z,-2.6
2018-02-22T05:06:22.074Z,-2.5
2018-02-22T05:07:22.140Z,-2.4
2018-02-22T05:09:22.277Z,-2.3
2018-02-22T05:10:22.370Z,-2.1
2018-02-22T05:12:22.429Z,-2
2018-02-22T05:14:22.534Z,-1.9
2018-02-22T05:15:22.664Z,-1.8
2018-02-22T05:17:22.709Z,-1.6
2018-02-22T05:18:22.783Z,-1.5
2018-02-22T05:19:22.833Z,-1.4
2018-02-22T05:20:22.915Z,-1.3
2018-02-22T05:22:23.023Z,-1.1
2018-02-22T05:24:23.138Z,-3
2018-02-22T05:25:23.314Z,-2.9
2018-02-22T05:26:23.319Z,-2.7
2018-02-22T05:29:23.554Z,-2.6
2018-02-22T05:30:23.519Z,-2.5
2018-02-22T05:33:23.723Z,-2.4
2018-02-22T05:36:23.923Z,-2.2
2018-02-22T05:39:24.098Z,-2.1
2018-02-22T05:43:24.312Z,-2
2018-02-22T05:47:24.595Z,-1.9
2018-02-22T05:52:24.901Z,-1.8
2018-02-22T05:58:25.270Z,-1.6
2018-02-22T06:04:25.647Z,-1.5
2018-02-22T06:13:26.212Z,-1.4
2018-02-22T06:22:26.726Z,-1.3
2018-02-22T06:30:27.185Z,-1.1
2018-02-22T06:39:27.773Z,-1
2018-02-22T06:48:28.354Z,-0.9
2018-02-22T06:53:28.619Z,-0.8
2018-02-22T06:55:28.774Z,-0.5
2018-02-22T06:57:28.843Z,-0.3
2018-02-22T06:59:28.984Z,-0.1
2018-02-22T07:10:29.764Z,0
2018-02-22T07:13:29.941Z,0.1
2018-02-22T07:17:30.183Z,0.3
2018-02-22T07:22:30.541Z,0.4
2018-02-22T07:26:30.736Z,0.5
2018-02-22T07:28:30.934Z,0.6
2018-02-22T07:29:30.991Z,0.8
2018-02-22T07:32:31.193Z,0.9
2018-02-22T07:33:31.206Z,1
2018-02-22T07:35:31.344Z,1.4
2018-02-22T07:36:31.428Z,2
2018-02-22T07:37:31.481Z,2.6
2018-02-22T07:38:31.470Z,3
2018-02-22T07:39:31.602Z,3.2
2018-02-22T07:40:31.644Z,3.6
2018-02-22T07:41:31.736Z,4
2018-02-22T07:42:31.724Z,4.2
2018-02-22T07:43:31.828Z,4.4
2018-02-22T07:44:31.870Z,4.6
2018-02-22T07:45:31.902Z,4.9
2018-02-22T07:46:31.965Z,5
2018-02-22T07:48:32.089Z,5.2
2018-02-22T07:49:32.205Z,5.5
2018-02-22T07:50:32.229Z,5.6
2018-02-22T07:51:32.339Z,5.7
2018-02-22T07:52:32.397Z,6.1
2018-02-22T07:53:32.439Z,6.4
2018-02-22T07:54:32.465Z,6.7
2018-02-22T07:55:32.557Z,7.2
2018-02-22T07:56:32.612Z,7.7
2018-02-22T07:57:32.693Z,8.3
2018-02-22T07:58:32.709Z,8.8
2018-02-22T07:59:32.777Z,9.4
2018-02-22T08:00:32.857Z,10.1
2018-02-22T08:01:32.883Z,10.8
2018-02-22T08:02:32.958Z,11.4
2018-02-22T08:03:33.003Z,12
2018-02-22T08:04:33.087Z,12.4
2018-02-22T08:05:33.153Z,12.9
2018-02-22T08:06:33.186Z,13.3
2018-02-22T08:07:33.261Z,13.6
2018-02-22T08:08:33.333Z,14.1
2018-02-22T08:09:33.401Z,14.4
2018-02-22T08:10:33.494Z,14.7
2018-02-22T08:11:33.561Z,15.1
2018-02-22T08:12:33.618Z,15.5
2018-02-22T08:13:33.672Z,15.8
2018-02-22T08:14:33.760Z,16.3
2018-02-22T08:15:33.795Z,16.5
2018-02-22T08:16:33.856Z,16.9
2018-02-22T08:17:33.912Z,17.1
2018-02-22T08:18:33.972Z,17.4
2018-02-22T08:19:34.030Z,17.5
2018-02-22T08:20:34.097Z,17.8
2018-02-22T08:21:34.155Z,17.9
2018-02-22T08:22:34.226Z,18
2018-02-22T08:23:34.309Z,18.1
2018-02-22T08:24:34.346Z,18.3
2018-02-22T08:25:34.404Z,18.4
2018-02-22T08:28:34.613Z,18.5
2018-02-22T08:30:34.676Z,17.9
2018-02-22T08:32:34.806Z,17.4
2018-02-22T08:33:34.905Z,16.4
2018-02-22T08:34:34.908Z,15.5
2018-02-22T08:35:34.994Z,14.7
2018-02-22T08:36:35.081Z,14.3
2018-02-22T08:37:35.099Z,13.5
2018-02-22T08:38:35.174Z,13.8
2018-02-22T08:39:35.309Z,13.9
2018-02-22T08:41:35.378Z,13.3
2018-02-22T08:43:35.501Z,14.1
2018-02-22T08:45:35.681Z,13.5
2018-02-22T08:46:35.734Z,12.8
2018-02-22T08:47:35.725Z,11.9
2018-02-22T08:48:35.797Z,11.1
2018-02-22T08:49:35.835Z,10.4
2018-02-22T08:50:36.012Z,9.8
2018-02-22T08:51:35.961Z,9.1
2018-02-22T08:52:36.056Z,8.6
2018-02-22T08:53:36.097Z,8.5
2018-02-22T08:54:36.137Z,9.4
2018-02-22T08:55:36.292Z,11.4
2018-02-22T08:56:36.276Z,13
2018-02-22T08:57:36.354Z,14.4
2018-02-22T08:58:36.437Z,15.4
2018-02-22T08:59:36.501Z,16.4
2018-02-22T09:00:36.548Z,17.2
2018-02-22T09:01:36.623Z,17.6
2018-02-22T09:02:36.686Z,17.8
2018-02-22T09:03:36.739Z,18.3
2018-02-22T09:04:36.820Z,18.9
2018-02-22T09:05:36.857Z,19.3
2018-02-22T09:06:36.946Z,19.6
2018-02-22T09:07:36.986Z,19.9
2018-02-22T09:09:37.118Z,20.1
2018-02-22T09:12:37.314Z,20.3
2018-02-22T09:13:37.313Z,20.4
2018-02-22T09:14:37.383Z,20.5
2018-02-22T09:15:37.501Z,20.8
2018-02-22T09:16:37.511Z,21
2018-02-22T09:17:37.586Z,21.2
2018-02-22T09:18:37.612Z,21.6
2018-02-22T09:19:37.690Z,21.9
2018-02-22T09:20:37.746Z,22.2
2018-02-22T09:21:37.861Z,22.6
2018-02-22T09:22:37.907Z,22.9
2018-02-22T09:23:37.917Z,23.1
2018-02-22T09:24:37.999Z,23.5
2018-02-22T09:25:38.065Z,23.7
2018-02-22T09:26:38.133Z,24
2018-02-22T09:27:38.270Z,24.3
2018-02-22T09:28:38.309Z,24.5
2018-02-22T09:29:38.379Z,24.7
2018-02-22T09:30:38.451Z,24.9
2018-02-22T09:31:38.546Z,25.1
2018-02-22T09:32:38.526Z,23.7
2018-02-22T09:33:38.608Z,22.1
2018-02-22T09:34:38.681Z,22.8
2018-02-22T09:35:38.768Z,22.6
2018-02-22T09:36:38.867Z,20.4
2018-02-22T09:37:38.820Z,18.9
2018-02-22T09:38:38.911Z,18
2018-02-22T09:39:39.014Z,19.4
2018-02-22T09:40:39.088Z,20.5
2018-02-22T09:41:39.130Z,21.5
2018-02-22T09:42:39.200Z,22
2018-02-22T09:43:39.287Z,20.4
2018-02-22T09:44:39.366Z,19.8
2018-02-22T09:45:39.423Z,18.8
2018-02-22T09:46:39.538Z,18.5
2018-02-22T09:47:39.540Z,19.8
2018-02-22T09:48:39.599Z,20.1
2018-02-22T09:49:39.661Z,20
2018-02-22T09:50:39.736Z,19.4
2018-02-22T09:51:39.781Z,18.9
2018-02-22T09:52:39.842Z,19.5
2018-02-22T09:53:39.914Z,19.8
2018-02-22T09:54:39.986Z,19.4
2018-02-22T09:55:40.032Z,19.1
2018-02-22T09:56:40.158Z,17.8
2018-02-22T09:57:40.179Z,16.8
2018-02-22T09:58:40.215Z,16
2018-02-22T09:59:40.297Z,15.4
2018-02-22T10:00:40.315Z,15.3
2018-02-22T10:01:40.356Z,14.7
2018-02-22T10:02:40.419Z,15
2018-02-22T10:03:40.470Z,16
2018-02-22T10:04:40.538Z,15.3
2018-02-22T10:05:40.611Z,14.6
2018-02-22T10:06:40.728Z,14.3
2018-02-22T10:07:40.768Z,15
2018-02-22T10:08:40.783Z,14.9
2018-02-22T10:09:40.853Z,14.3
2018-02-22T10:10:40.917Z,13.6
2018-02-22T10:11:41.012Z,13.1
2018-02-22T10:12:41.070Z,12.6
2018-02-22T10:13:41.145Z,12.2
2018-02-22T10:14:41.154Z,12.1
2018-02-22T10:15:41.259Z,12.6
2018-02-22T10:16:41.301Z,14.1
2018-02-22T10:17:41.414Z,15.3
2018-02-22T10:18:41.420Z,16.6
2018-02-22T10:19:41.524Z,18.4
2018-02-22T10:20:41.522Z,19.3
2018-02-22T10:21:41.609Z,20
2018-02-22T10:22:41.741Z,21.2
2018-02-22T10:23:41.722Z,22.6
2018-02-22T10:24:41.786Z,23
2018-02-22T10:25:41.885Z,24.3
2018-02-22T10:26:41.892Z,25.3
2018-02-22T10:27:41.958Z,26
2018-02-22T10:28:42.010Z,26.6
2018-02-22T10:29:42.120Z,27.1
2018-02-22T10:30:42.153Z,27.5
2018-02-22T10:31:42.210Z,27.6
2018-02-22T10:32:42.273Z,27.9
2018-02-22T10:33:42.334Z,28.1
2018-02-22T10:34:42.416Z,28
2018-02-22T10:35:42.517Z,28.3
2018-02-22T10:36:42.551Z,28.6
2018-02-22T10:37:42.639Z,28.7
2018-02-22T10:38:42.709Z,29
2018-02-22T10:39:42.767Z,29.1
2018-02-22T10:40:42.807Z,29.3
2018-02-22T10:41:42.887Z,29.1
2018-02-22T10:42:42.925Z,29.4
2018-02-22T10:43:43.003Z,29.6
2018-02-22T10:45:43.117Z,29.4
2018-02-22T10:46:43.190Z,29.1
2018-02-22T10:47:43.226Z,29.5
2018-02-22T10:48:43.309Z,29.3
2018-02-22T10:49:43.359Z,28.7
2018-02-22T10:50:43.411Z,26.2
2018-02-22T10:51:43.482Z,25.5
2018-02-22T10:52:43.518Z,24.1
2018-02-22T10:53:43.612Z,24.7
2018-02-22T10:54:43.679Z,25.8
2018-02-22T10:56:43.750Z,25.4
2018-02-22T10:57:43.805Z,24.1
2018-02-22T10:58:43.866Z,24.9
2018-02-22T10:59:43.922Z,25.6
2018-02-22T11:00:43.990Z,26.2
2018-02-22T11:01:44.054Z,26.9
2018-02-22T11:02:44.118Z,27.1
2018-02-22T11:03:44.229Z,27.6
2018-02-22T11:04:44.234Z,27.9
2018-02-22T11:05:44.287Z,28.1
2018-02-22T11:06:44.410Z,28.5
2018-02-22T11:07:44.449Z,29
2018-02-22T11:08:44.534Z,29.4
2018-02-22T11:09:44.553Z,29.8
2018-02-22T11:10:44.637Z,30
2018-02-22T11:11:44.687Z,30.3
2018-02-22T11:12:44.742Z,30.6
2018-02-22T11:13:44.845Z,31
2018-02-22T11:14:44.845Z,31.1
2018-02-22T11:16:44.966Z,31.5
2018-02-22T11:17:45.031Z,31.8
2018-02-22T11:18:45.159Z,31.9
2018-02-22T11:19:45.371Z,32.1
2018-02-22T11:20:45.224Z,32.5
2018-02-22T11:21:45.321Z,32.7
2018-02-22T11:22:45.360Z,32.9
2018-02-22T11:23:45.435Z,30.8
2018-02-22T11:24:45.530Z,30.1
2018-02-22T11:25:45.565Z,31.2
2018-02-22T11:26:45.638Z,32
2018-02-22T11:27:45.719Z,32.2
2018-02-22T11:28:45.762Z,32
2018-02-22T11:29:45.810Z,30
2018-02-22T11:30:45.909Z,27.9
2018-02-22T11:31:45.940Z,26.6
2018-02-22T11:32:45.992Z,26.9
2018-02-22T11:33:46.092Z,25.3
2018-02-22T11:34:46.103Z,23.4
2018-02-22T11:35:46.199Z,21.8
2018-02-22T11:36:46.260Z,20.4
2018-02-22T11:37:46.331Z,19.1
2018-02-22T11:38:46.359Z,17.9
2018-02-22T11:39:46.446Z,16.9
2018-02-22T11:40:46.515Z,16
2018-02-22T11:41:46.523Z,15
2018-02-22T11:42:46.641Z,14.3
2018-02-22T11:43:46.682Z,13.6
2018-02-22T11:44:46.761Z,13.1
2018-02-22T11:45:46.758Z,13.3
2018-02-22T11:46:46.832Z,12.8
2018-02-22T11:47:46.875Z,12.2
2018-02-22T11:48:46.948Z,12.1
2018-02-22T11:49:47.008Z,13.3
2018-02-22T11:50:47.070Z,14.6
2018-02-22T11:51:47.155Z,16.6
2018-02-22T11:52:47.230Z,18.1
2018-02-22T11:53:47.306Z,17.9
2018-02-22T11:54:47.349Z,16.5
2018-02-22T11:55:47.423Z,15.5
2018-02-22T11:56:47.465Z,15
2018-02-22T11:57:47.533Z,15.6
2018-02-22T11:58:47.586Z,14.7
2018-02-22T11:59:47.683Z,15.3
2018-02-22T12:00:47.749Z,17
2018-02-22T12:01:47.748Z,18.9
2018-02-22T12:02:47.835Z,17.9
2018-02-22T12:03:47.872Z,17.4
2018-02-22T12:04:47.932Z,19.4
2018-02-22T12:05:47.982Z,20.9
2018-02-22T12:06:48.093Z,19.8
2018-02-22T12:07:48.121Z,18.1
2018-02-22T12:08:48.176Z,19.1
2018-02-22T12:09:48.277Z,19.6
2018-02-22T12:10:48.472Z,20
2018-02-22T12:11:48.423Z,21.6
2018-02-22T12:13:48.526Z,22.9
2018-02-22T12:14:48.609Z,22.5
2018-02-22T12:15:48.599Z,21.9
2018-02-22T12:16:48.697Z,20.4
2018-02-22T12:17:48.801Z,20.5
2018-02-22T12:18:48.856Z,22.1
2018-02-22T12:19:48.895Z,23.4
2018-02-22T12:20:48.956Z,24
2018-02-22T12:21:49.027Z,25
2018-02-22T12:22:49.078Z,25.8
2018-02-22T12:23:49.144Z,23.7
2018-02-22T12:24:49.173Z,22.4
2018-02-22T12:25:49.269Z,22.1
2018-02-22T12:26:49.333Z,22
2018-02-22T12:27:49.344Z,21.5
2018-02-22T12:28:49.459Z,19.9
2018-02-22T12:29:49.468Z,19
2018-02-22T12:30:49.579Z,20.8
2018-02-22T12:31:49.683Z,22.4
2018-02-22T12:32:49.871Z,23.6
2018-02-22T12:33:49.709Z,24.6
2018-02-22T12:34:49.792Z,25.4
2018-02-22T12:35:49.838Z,26.1
2018-02-22T12:36:49.893Z,26.4
2018-02-22T12:37:49.954Z,25.5
2018-02-22T12:38:50.031Z,26.5
2018-02-22T12:39:50.118Z,26.8
2018-02-22T12:40:50.157Z,27.2
2018-02-22T12:41:50.300Z,27.8
2018-02-22T12:42:50.302Z,28.3
2018-02-22T12:43:50.321Z,28.6
2018-02-22T12:44:50.391Z,28.9
2018-02-22T12:45:50.534Z,29.1
2018-02-22T12:46:50.582Z,27
2018-02-22T12:47:50.582Z,25.1
2018-02-22T12:48:50.638Z,23.4
2018-02-22T12:49:50.695Z,22.2
2018-02-22T12:50:50.766Z,24
2018-02-22T12:51:50.843Z,24.3
2018-02-22T12:52:50.931Z,25.5
2018-02-22T12:53:50.980Z,26
2018-02-22T12:54:51.044Z,26.9
2018-02-22T12:55:51.071Z,27.5
2018-02-22T12:56:51.193Z,28.3
2018-02-22T12:57:51.259Z,27.9
2018-02-22T12:58:51.312Z,27.1
2018-02-22T12:59:51.385Z,28
2018-02-22T13:00:51.394Z,28.6
2018-02-22T13:01:51.520Z,27
2018-02-22T13:02:51.581Z,26.6
2018-02-22T13:03:51.618Z,25
2018-02-22T13:04:51.745Z,23.5
2018-02-22T13:05:51.746Z,22.4
2018-02-22T13:06:51.799Z,21.8
2018-02-22T13:07:51.918Z,21.5
2018-02-22T13:08:52.004Z,20.6
2018-02-22T13:09:51.979Z,19.6
2018-02-22T13:10:52.054Z,19.5
2018-02-22T13:11:52.152Z,18.9
2018-02-22T13:12:52.198Z,18.4
2018-02-22T13:13:52.264Z,19.3
2018-02-22T13:14:52.308Z,19.6
2018-02-22T13:16:52.430Z,21.4
2018-02-22T13:17:52.492Z,20.9
2018-02-22T13:18:52.597Z,22.6
2018-02-22T13:19:52.574Z,21.8
2018-02-22T13:20:52.652Z,20.4
2018-02-22T13:21:52.692Z,19.4
2018-02-22T13:22:52.799Z,18.5
2018-02-22T13:23:52.813Z,17.8
2018-02-22T13:24:52.872Z,17.1
2018-02-22T13:25:52.939Z,16.6
2018-02-22T13:26:53.009Z,16.1
2018-02-22T13:27:53.063Z,15.8
2018-02-22T13:28:53.151Z,15.4
2018-02-22T13:29:53.200Z,15.3
2018-02-22T13:30:53.315Z,15.6
2018-02-22T13:31:53.317Z,17.8
2018-02-22T13:32:53.412Z,18.3
2018-02-22T13:33:53.456Z,17.1
2018-02-22T13:34:53.543Z,16.3
2018-02-22T13:35:53.614Z,15.9
2018-02-22T13:36:53.613Z,17.8
2018-02-22T13:37:53.704Z,17
2018-02-22T13:38:53.753Z,16.8
2018-02-22T13:39:53.843Z,16
2018-02-22T13:40:53.881Z,15.3
2018-02-22T13:41:54.002Z,15.8
2018-02-22T13:42:54.013Z,18
2018-02-22T13:43:54.047Z,19.6
2018-02-22T13:44:54.106Z,20.5
2018-02-22T13:45:54.175Z,21.2
2018-02-22T13:46:54.288Z,22.2
2018-02-22T13:47:54.293Z,23.4
2018-02-22T13:48:54.403Z,24.3
2018-02-22T13:49:54.469Z,25
2018-02-22T13:50:54.518Z,25.8
2018-02-22T13:51:54.598Z,26.2
2018-02-22T13:52:54.657Z,26.5
2018-02-22T13:53:54.706Z,26.6
2018-02-22T13:54:54.770Z,26.1
2018-02-22T13:55:54.841Z,24.3
2018-02-22T13:56:54.942Z,22.6
2018-02-22T13:57:54.911Z,21.8
2018-02-22T13:58:55.054Z,21.5
2018-02-22T13:59:55.084Z,20.9
2018-02-22T14:00:55.156Z,20.3
2018-02-22T14:01:55.260Z,21.6
2018-02-22T14:02:55.288Z,22.5
2018-02-22T14:03:55.329Z,21.5
2018-02-22T14:04:55.363Z,22.5
2018-02-22T14:05:55.451Z,23.6
2018-02-22T14:06:55.494Z,24.3
2018-02-22T14:07:55.577Z,24.5
2018-02-22T14:08:55.603Z,25
2018-02-22T14:09:55.672Z,24.5
2018-02-22T14:10:55.715Z,24
2018-02-22T14:11:55.902Z,23
2018-02-22T14:12:55.852Z,22.6
2018-02-22T14:13:55.952Z,20.8
2018-02-22T14:14:55.953Z,19.4
2018-02-22T14:15:56.095Z,18.4
2018-02-22T14:16:56.178Z,17.5
2018-02-22T14:17:56.135Z,17.2
2018-02-22T14:18:56.200Z,16.9
2018-02-22T14:19:56.255Z,16.1
2018-02-22T14:20:56.385Z,15.5
2018-02-22T14:21:56.462Z,14.9
2018-02-22T14:22:56.494Z,14.4
2018-02-22T14:23:56.515Z,13.9
2018-02-22T14:24:56.584Z,13.5
2018-02-22T14:25:56.631Z,13
2018-02-22T14:26:56.941Z,12.6
2018-02-22T14:27:56.784Z,12.1
2018-02-22T14:28:56.833Z,11.8
2018-02-22T14:29:56.934Z,11.3
2018-02-22T14:30:56.928Z,11
2018-02-22T14:31:57.023Z,10.6
2018-02-22T14:32:57.101Z,10.3
2018-02-22T14:33:57.181Z,9.9
2018-02-22T14:34:57.193Z,9.6
2018-02-22T14:35:57.299Z,9.4
2018-02-22T14:36:57.413Z,9.3
2018-02-22T14:37:57.390Z,9.1
2018-02-22T14:38:57.532Z,9
2018-02-22T14:40:57.617Z,8.9
2018-02-22T14:42:57.696Z,8.8
2018-02-22T14:43:57.848Z,8.6
2018-02-22T14:45:57.853Z,8.4
2018-02-22T14:46:57.957Z,8.3
2018-02-22T14:47:58.025Z,8.1
2018-02-22T14:48:58.081Z,8
2018-02-22T14:49:58.129Z,7.9
2018-02-22T14:50:58.200Z,7.7
2018-02-22T14:51:58.244Z,7.5
2018-02-22T14:52:58.340Z,7.4
2018-02-22T14:53:58.403Z,7.2
2018-02-22T14:54:58.442Z,7
2018-02-22T14:55:58.477Z,6.9
2018-02-22T14:56:58.561Z,6.6
2018-02-22T14:57:58.595Z,6.5
2018-02-22T14:58:58.718Z,6.4
2018-02-22T14:59:58.727Z,6.2
2018-02-22T15:01:58.852Z,6
2018-02-22T15:03:58.959Z,5.9
2018-02-22T15:05:59.086Z,5.7
2018-02-22T15:09:59.370Z,5.6
2018-02-22T15:11:59.511Z,5.5
2018-02-22T15:13:59.663Z,5.4
2018-02-22T15:15:59.705Z,5.2
2018-02-22T15:21:00.011Z,5.1
2018-02-22T15:26:00.863Z,5
2018-02-22T15:30:00.972Z,4.9
2018-02-22T15:35:01.185Z,4.7
2018-02-22T15:36:01.038Z,4.9
2018-02-22T15:37:01.516Z,4.7
2018-02-22T15:40:02.142Z,4.6
2018-02-22T15:43:01.357Z,4.5
2018-02-22T15:45:01.486Z,4.4
2018-02-22T15:48:01.700Z,4.2
2018-02-22T15:50:01.796Z,4.1
2018-02-22T15:52:01.966Z,4
2018-02-22T15:54:02.064Z,3.9
2018-02-22T15:56:02.157Z,3.7
2018-02-22T15:59:02.376Z,3.6
2018-02-22T16:02:02.554Z,3.5
2018-02-22T16:06:02.774Z,3.4
2018-02-22T16:11:03.084Z,3.2
2018-02-22T16:15:03.379Z,3.1
2018-02-22T16:19:03.602Z,3
2018-02-22T16:26:04.044Z,2.9
2018-02-22T16:32:04.426Z,2.7
2018-02-22T16:38:04.767Z,2.6
2018-02-22T16:44:05.133Z,2.5
2018-02-22T16:56:05.863Z,2.4
2018-02-22T16:57:05.909Z,2.5
2018-02-22T16:58:05.963Z,2.4
2018-02-22T17:03:06.298Z,2.2
2018-02-22T17:10:06.715Z,2.1
2018-02-22T17:19:07.308Z,2
2018-02-22T17:27:07.770Z,1.9
2018-02-22T17:33:08.173Z,1.8
2018-02-22T17:38:08.482Z,1.6
2018-02-22T17:43:08.770Z,1.5
2018-02-22T17:47:09.089Z,1.4
2018-02-22T17:50:09.159Z,1.3
2018-02-22T17:53:09.378Z,1.1
2018-02-22T17:56:09.579Z,1
2018-02-22T17:59:09.783Z,0.9
2018-02-22T18:02:09.972Z,0.8
2018-02-22T18:06:10.214Z,0.6
2018-02-22T18:12:10.541Z,0.5
2018-02-22T18:35:11.925Z,0.6
2018-02-22T18:36:11.973Z,0.5
2018-02-22T18:37:12.067Z,0.6
2018-02-22T18:40:12.240Z,0.5
2018-02-22T18:41:12.448Z,0.6
2018-02-22T18:45:12.606Z,0.5
2018-02-22T18:46:12.622Z,0.6
2018-02-22T18:47:12.718Z,0.5
2018-02-22T18:55:13.161Z,0.4
2018-02-22T19:08:13.949Z,0.5
2018-02-22T19:09:14.001Z,0.4
2018-02-22T19:16:14.494Z,0.5
2018-02-22T19:17:14.519Z,0.4
2018-02-22T19:18:14.600Z,0.5
2018-02-22T19:19:14.658Z,0.4
2018-02-22T19:22:14.855Z,0.5
2018-02-22T19:23:14.866Z,0.4
2018-02-22T19:25:15.009Z,0.5
2018-02-22T19:26:15.056Z,0.4
2018-02-22T19:27:15.139Z,0.5
2018-02-22T19:30:15.333Z,0.4
2018-02-22T19:31:15.422Z,0.5
2018-02-22T19:45:16.295Z,0.6
2018-02-22T19:46:16.313Z,0.5
2018-02-22T19:49:16.524Z,0.6
2018-02-22T20:18:18.267Z,0.5
2018-02-22T20:19:18.304Z,0.6
2018-02-22T20:22:18.541Z,0.5
2018-02-22T20:24:18.655Z,0.6
2018-02-22T20:26:18.796Z,0.5
2018-02-22T20:28:18.919Z,0.6
2018-02-22T20:30:19.018Z,0.5
2018-02-22T20:32:19.189Z,0.6
2018-02-22T20:33:19.228Z,0.5
2018-02-22T20:35:19.369Z,0.6
2018-02-22T20:36:19.425Z,0.5
2018-02-22T20:37:19.461Z,0.6
2018-02-22T20:38:19.473Z,0.5
2018-02-22T20:49:20.237Z,0.6
2018-02-22T20:50:20.273Z,0.5
2018-02-22T21:31:22.715Z,0.4
2018-02-22T21:32:22.794Z,0.5
2018-02-22T21:33:22.856Z,0.4
2018-02-22T21:41:23.407Z,0.3
2018-02-22T21:54:24.140Z,0.1
2018-02-22T21:55:24.189Z,0.3
2018-02-22T21:58:24.461Z,0.1
2018-02-22T22:17:25.660Z,0
2018-02-22T22:25:26.039Z,-0.1
2018-02-22T22:30:26.422Z,-0.3
2018-02-22T22:34:26.655Z,-0.4
2018-02-22T22:39:26.968Z,-0.5
2018-02-22T22:43:27.176Z,-0.6
2018-02-22T22:48:27.515Z,-0.8
2018-02-22T22:52:27.818Z,-0.9
2018-02-22T22:56:28.027Z,-1
2018-02-22T23:02:28.332Z,-1.1
2018-02-22T23:06:28.638Z,-1.3
2018-02-22T23:16:29.169Z,-1.1
2018-02-22T23:23:29.622Z,-1
2018-02-22T23:30:30.070Z,-0.9
2018-02-22T23:35:30.390Z,-0.8
2018-02-22T23:40:30.707Z,-0.6
2018-02-22T23:43:30.825Z,-0.5
2018-02-22T23:50:31.254Z,-0.4
2018-02-22T23:56:31.626Z,-0.3
